createdAt,value
2023-12-02T07:58:12.881Z,97722.00
2023-12-02T07:58:24.175Z,97724.00
2023-12-02T07:58:35.709Z,97724.00
2023-12-02T07:58:47.043Z,97722.00
2023-12-02T07:58:58.644Z,97722.00
2023-12-02T07:59:09.918Z,97712.00
2023-12-02T07:59:21.484Z,97720.00
2023-12-02T07:59:31.529Z,97710.00
2023-12-02T07:59:43.037Z,97710.00
2023-12-02T07:59:54.306Z,97712.00
2023-12-02T08:00:05.872Z,97708.00
2023-12-02T08:00:17.123Z,97706.00
2023-12-02T08:00:28.664Z,97710.00
2023-12-02T08:00:40.069Z,97708.00
2023-12-02T08:00:51.650Z,97710.00
2023-12-02T08:01:02.895Z,97708.00
2023-12-02T08:01:14.423Z,97712.00
2023-12-02T08:01:25.891Z,97706.00
2023-12-02T08:01:37.594Z,97706.00
2023-12-02T08:01:48.974Z,97708.00
2023-12-02T08:02:00.626Z,97706.00
2023-12-02T08:02:11.989Z,97702.00
2023-12-02T08:02:23.706Z,97704.00
2023-12-02T08:02:35.123Z,97702.00
2023-12-02T08:02:46.882Z,97698.00
2023-12-02T08:02:58.202Z,97700.00
2023-12-02T08:03:09.761Z,97700.00
2023-12-02T08:03:23.327Z,97700.00
2023-12-02T08:03:33.192Z,97700.00
2023-12-02T08:03:44.725Z,97702.00
2023-12-02T08:03:56.033Z,97697.00
2023-12-02T08:04:07.638Z,97693.00
2023-12-02T08:04:18.969Z,97693.00
2023-12-02T08:04:30.479Z,97693.00
2023-12-02T08:04:41.829Z,97691.00
2023-12-02T08:05:50.605Z,97685.00
2023-12-02T08:06:02.869Z,97681.00
2023-12-02T08:06:14.388Z,97677.00
2023-12-02T08:06:25.684Z,97677.00
2023-12-02T08:06:37.211Z,97675.00
2023-12-02T08:06:49.258Z,97677.00
2023-12-02T08:07:00.797Z,97675.00
2023-12-02T08:07:12.039Z,97675.00
2023-12-02T08:07:23.564Z,97673.00
2023-12-02T08:07:34.859Z,97673.00
2023-12-02T08:07:46.387Z,97677.00
2023-12-02T08:07:57.681Z,97677.00
2023-12-02T08:08:09.212Z,97679.00
2023-12-02T08:08:20.557Z,97679.00
2023-12-02T08:08:32.066Z,97679.00
2023-12-02T08:08:43.314Z,97683.00
2023-12-02T08:08:54.883Z,97681.00
2023-12-02T08:09:06.147Z,97683.00
2023-12-02T08:09:17.694Z,97687.00
2023-12-02T08:09:28.945Z,97687.00
2023-12-02T08:09:40.509Z,97685.00
2023-12-02T08:09:51.782Z,97687.00
2023-12-02T08:10:03.384Z,97689.00
2023-12-02T08:10:14.654Z,97685.00
2023-12-02T08:10:26.220Z,97683.00
2023-12-02T08:10:37.576Z,97685.00
2023-12-02T08:10:49.168Z,97681.00
2023-12-02T08:11:01.276Z,97681.00
2023-12-02T08:11:12.863Z,97679.00
2023-12-02T08:11:24.142Z,97677.00
2023-12-02T08:11:34.102Z,97679.00
2023-12-02T08:11:45.610Z,97675.00
2023-12-02T08:11:56.911Z,97677.00
2023-12-02T08:12:08.417Z,97675.00
2023-12-02T08:12:19.680Z,97673.00
2023-12-02T08:12:31.765Z,97675.00
2023-12-02T08:12:43.348Z,97675.00
2023-12-02T08:12:54.602Z,97675.00
2023-12-02T08:13:06.154Z,97673.00
2023-12-02T08:13:17.446Z,97673.00
2023-12-02T08:13:28.981Z,97673.00
2023-12-02T08:13:40.296Z,97675.00
2023-12-02T08:13:51.936Z,97677.00
2023-12-02T08:14:03.237Z,97679.00
2023-12-02T08:14:14.749Z,97679.00
2023-12-02T08:14:26.020Z,97681.00
2023-12-02T08:14:37.534Z,97681.00
2023-12-02T08:14:48.839Z,97683.00
2023-12-02T08:15:00.416Z,97683.00
2023-12-02T08:15:11.683Z,97683.00
2023-12-02T08:15:23.191Z,97685.00
2023-12-02T08:15:34.510Z,97687.00
2023-12-02T08:15:46.000Z,97687.00
2023-12-02T08:15:57.256Z,97689.00
2023-12-02T08:16:08.789Z,97693.00
2023-12-02T08:16:20.101Z,97691.00
2023-12-02T08:16:31.665Z,97695.00
2023-12-02T08:16:42.950Z,97695.00
2023-12-02T08:16:54.499Z,97695.00
2023-12-02T08:17:05.795Z,97695.00
2023-12-02T08:17:17.322Z,97695.00
2023-12-02T08:17:28.653Z,97695.00
2023-12-02T08:17:40.185Z,97695.00
2023-12-02T08:17:51.662Z,97697.00
2023-12-02T08:18:03.800Z,97695.00
2023-12-02T08:18:15.338Z,97695.00
2023-12-02T08:18:26.619Z,97695.00
2023-12-02T08:18:38.148Z,97698.00
2023-12-02T08:18:49.385Z,97697.00
2023-12-02T08:19:00.914Z,97697.00
2023-12-02T08:19:12.203Z,97698.00
2023-12-02T08:19:23.705Z,97698.00
2023-12-02T08:19:34.993Z,97700.00
2023-12-02T08:19:46.595Z,97698.00
2023-12-02T08:19:58.007Z,97697.00
2023-12-02T08:20:09.630Z,97698.00
2023-12-02T08:20:21.012Z,97697.00
2023-12-02T08:20:32.659Z,97698.00
2023-12-02T08:20:44.840Z,97698.00
2023-12-02T08:20:56.410Z,97700.00
2023-12-02T08:21:07.732Z,97704.00
2023-12-02T08:21:19.272Z,97698.00
2023-12-02T08:21:30.530Z,97700.00
2023-12-02T08:21:42.033Z,97702.00
2023-12-02T08:21:53.300Z,97702.00
2023-12-02T08:22:04.811Z,97702.00
2023-12-02T08:22:16.094Z,97704.00
2023-12-02T08:22:27.639Z,97704.00
2023-12-02T08:22:38.926Z,97702.00
2023-12-02T08:22:50.504Z,97700.00
2023-12-02T08:23:01.803Z,97700.00
2023-12-02T08:23:13.376Z,97704.00
2023-12-02T08:23:24.648Z,97702.00
2023-12-02T08:23:36.215Z,97698.00
2023-12-02T08:23:47.452Z,97700.00
2023-12-02T08:23:58.962Z,97700.00
2023-12-02T08:24:10.252Z,97698.00
2023-12-02T08:24:21.780Z,97697.00
2023-12-02T08:24:33.062Z,97698.00
2023-12-02T08:24:44.588Z,97698.00
2023-12-02T08:24:55.828Z,97697.00
2023-12-02T08:25:07.357Z,97698.00
2023-12-02T08:25:18.615Z,97698.00
2023-12-02T08:25:30.234Z,97700.00
2023-12-02T08:25:41.594Z,97700.00
2023-12-02T08:25:53.115Z,97700.00
2023-12-02T08:26:04.425Z,97700.00
2023-12-02T08:26:15.956Z,97700.00
2023-12-02T08:26:27.233Z,97702.00
2023-12-02T08:26:38.770Z,97702.00
2023-12-02T08:26:50.289Z,97704.00
2023-12-02T08:27:01.814Z,97706.00
2023-12-02T08:27:13.096Z,97708.00
2023-12-02T08:27:24.598Z,97710.00
2023-12-02T08:27:35.884Z,97710.00
2023-12-02T08:27:47.378Z,97712.00
2023-12-02T08:27:58.639Z,97710.00
2023-12-02T08:28:10.158Z,97720.00
2023-12-02T08:28:21.463Z,97722.00
2023-12-02T08:28:33.074Z,97722.00
2023-12-02T08:28:44.465Z,97722.00
2023-12-02T08:28:56.038Z,97724.00
2023-12-02T08:29:07.302Z,97722.00
2023-12-02T08:29:18.799Z,97722.00
2023-12-02T08:29:30.089Z,97724.00
2023-12-02T08:29:41.617Z,97726.00
2023-12-02T08:29:52.874Z,97726.00
2023-12-02T08:30:05.287Z,97726.00
2023-12-02T08:30:14.408Z,97730.00
2023-12-02T08:30:25.943Z,97724.00
2023-12-02T08:30:37.194Z,97726.00
2023-12-02T08:30:48.772Z,97732.00
2023-12-02T08:31:00.044Z,97734.00
2023-12-02T08:31:12.010Z,97730.00
2023-12-02T08:31:23.238Z,97730.00
2023-12-02T08:31:34.830Z,97728.00
2023-12-02T08:31:46.142Z,97734.00
2023-12-02T08:31:57.668Z,97734.00
2023-12-02T08:32:08.985Z,97738.00
2023-12-02T08:32:20.515Z,97738.00
2023-12-02T08:32:31.849Z,97738.00
2023-12-02T08:32:43.427Z,97738.00
2023-12-02T08:32:54.723Z,97736.00
2023-12-02T08:33:06.316Z,97738.00
2023-12-02T08:33:17.616Z,97738.00
2023-12-02T08:33:29.124Z,97736.00
2023-12-02T08:33:40.388Z,97738.00
2023-12-02T08:33:51.949Z,97738.00
2023-12-02T08:34:03.248Z,97744.00
2023-12-02T08:34:16.068Z,97744.00
2023-12-02T08:34:25.587Z,97742.00
2023-12-02T08:34:37.314Z,97742.00
2023-12-02T08:34:48.697Z,97742.00
2023-12-02T08:35:00.337Z,97742.00
2023-12-02T08:35:11.753Z,97740.00
2023-12-02T08:35:23.321Z,97738.00
2023-12-02T08:35:34.574Z,97742.00
2023-12-02T08:35:46.769Z,97736.00
2023-12-02T08:35:58.324Z,97740.00
2023-12-02T08:36:09.590Z,97736.00
2023-12-02T08:36:21.170Z,97736.00
2023-12-02T08:36:32.423Z,97736.00
2023-12-02T08:36:43.944Z,97734.00
2023-12-02T08:36:55.195Z,97734.00
2023-12-02T08:37:06.751Z,97732.00
2023-12-02T08:37:18.007Z,97732.00
2023-12-02T08:37:29.619Z,97728.00
2023-12-02T08:37:40.945Z,97724.00
2023-12-02T08:37:52.536Z,97722.00
2023-12-02T08:38:03.869Z,97722.00
2023-12-02T08:38:15.372Z,97720.00
2023-12-02T08:38:26.648Z,97722.00
2023-12-02T08:38:38.158Z,97720.00
2023-12-02T08:38:49.386Z,97712.00
2023-12-02T08:39:00.927Z,97712.00
2023-12-02T08:39:12.182Z,97710.00
2023-12-02T08:39:23.760Z,97710.00
2023-12-02T08:39:35.038Z,97708.00
2023-12-02T08:39:46.669Z,97708.00
2023-12-02T08:39:57.979Z,97708.00
2023-12-02T08:40:09.524Z,97706.00
2023-12-02T08:40:20.785Z,97706.00
2023-12-02T08:40:32.320Z,97704.00
2023-12-02T08:40:43.634Z,97704.00
2023-12-02T08:40:55.271Z,97702.00
2023-12-02T08:41:06.678Z,97702.00
2023-12-02T08:41:18.248Z,97704.00
2023-12-02T08:41:29.523Z,97702.00
2023-12-02T08:41:41.132Z,97704.00
2023-12-02T08:41:52.449Z,97702.00
2023-12-02T08:42:03.951Z,97704.00
2023-12-02T08:42:15.205Z,97698.00
2023-12-02T08:42:26.770Z,97702.00
2023-12-02T08:42:38.016Z,97702.00
2023-12-02T08:42:49.552Z,97700.00
2023-12-02T08:43:00.816Z,97700.00
2023-12-02T08:43:12.319Z,97702.00
2023-12-02T08:43:23.606Z,97702.00
2023-12-02T08:43:35.226Z,97700.00
2023-12-02T08:43:46.538Z,97700.00
2023-12-02T08:43:58.044Z,97698.00
2023-12-02T08:44:11.741Z,97700.00
2023-12-02T08:44:20.464Z,97700.00
2023-12-02T08:44:31.798Z,97702.00
2023-12-02T08:44:43.323Z,97700.00
2023-12-02T08:44:54.590Z,97698.00
2023-12-02T08:45:06.118Z,97700.00
2023-12-02T08:45:18.267Z,97698.00
2023-12-02T08:45:27.458Z,97700.00
2023-12-02T08:45:38.991Z,97702.00
2023-12-02T08:45:50.273Z,97697.00
2023-12-02T08:46:01.792Z,97700.00
2023-12-02T08:46:13.052Z,97698.00
2023-12-02T08:46:24.603Z,97698.00
2023-12-02T08:46:35.926Z,97700.00
2023-12-02T08:46:47.472Z,97698.00
2023-12-02T08:46:58.765Z,97697.00
2023-12-02T08:47:10.356Z,97698.00
2023-12-02T08:47:21.659Z,97697.00
2023-12-02T08:47:33.173Z,97697.00
2023-12-02T08:47:44.495Z,97697.00
2023-12-02T08:47:56.063Z,97700.00
2023-12-02T08:48:07.470Z,97700.00
2023-12-02T08:48:19.143Z,97700.00
2023-12-02T08:48:30.510Z,97697.00
2023-12-02T08:48:42.031Z,97702.00
2023-12-02T08:48:53.335Z,97698.00
2023-12-02T08:49:04.893Z,97702.00
2023-12-02T08:49:16.248Z,97702.00
2023-12-02T08:49:27.791Z,97700.00
2023-12-02T08:49:39.110Z,97700.00
2023-12-02T08:49:50.661Z,97700.00
2023-12-02T08:50:01.979Z,97698.00
2023-12-02T08:50:13.703Z,97700.00
2023-12-02T08:50:25.002Z,97702.00
2023-12-02T08:50:36.529Z,97700.00
2023-12-02T08:50:47.779Z,97704.00
2023-12-02T08:50:59.302Z,97704.00
2023-12-02T08:51:10.561Z,97706.00
2023-12-02T08:51:22.103Z,97708.00
2023-12-02T08:51:33.402Z,97706.00
2023-12-02T08:51:44.923Z,97710.00
2023-12-02T08:51:56.175Z,97706.00
2023-12-02T08:52:07.705Z,97710.00
2023-12-02T08:52:18.989Z,97710.00
2023-12-02T08:52:30.566Z,97710.00
2023-12-02T08:52:41.825Z,97708.00
2023-12-02T08:52:53.375Z,97712.00
2023-12-02T08:53:04.732Z,97710.00
2023-12-02T08:53:16.271Z,97720.00
2023-12-02T08:53:27.546Z,97720.00
2023-12-02T08:53:39.054Z,97720.00
2023-12-02T08:53:50.310Z,97720.00
2023-12-02T08:54:01.853Z,97712.00
2023-12-02T08:54:13.117Z,97712.00
2023-12-02T08:54:25.402Z,97720.00
2023-12-02T08:54:36.932Z,97720.00
2023-12-02T08:54:48.197Z,97720.00
2023-12-02T08:54:59.723Z,97720.00
2023-12-02T08:55:14.203Z,97720.00
2023-12-02T08:55:22.023Z,97720.00
2023-12-02T08:55:33.353Z,97712.00
2023-12-02T08:55:44.947Z,97722.00
2023-12-02T08:55:56.329Z,97722.00
2023-12-02T08:56:07.912Z,97722.00
2023-12-02T08:56:19.194Z,97722.00
2023-12-02T08:56:30.714Z,97722.00
2023-12-02T08:56:41.993Z,97722.00
2023-12-02T08:56:53.506Z,97722.00
2023-12-02T08:57:04.809Z,97724.00
2023-12-02T08:57:16.346Z,97726.00
2023-12-02T08:57:27.611Z,97724.00
2023-12-02T08:57:39.251Z,97726.00
2023-12-02T08:57:50.547Z,97728.00
2023-12-02T08:58:02.059Z,97726.00
2023-12-02T08:58:13.333Z,97730.00
2023-12-02T08:58:24.864Z,97730.00
2023-12-02T08:58:36.200Z,97730.00
2023-12-02T08:58:47.749Z,97730.00
2023-12-02T08:58:59.102Z,97730.00
2023-12-02T08:59:10.680Z,97730.00
2023-12-02T08:59:22.012Z,97730.00
2023-12-02T08:59:33.557Z,97732.00
2023-12-02T08:59:45.779Z,97732.00
2023-12-02T08:59:54.937Z,97732.00
2023-12-02T09:00:06.510Z,97730.00
2023-12-02T09:00:17.748Z,97728.00
2023-12-02T09:00:29.308Z,97728.00
2023-12-02T09:00:40.570Z,97728.00
2023-12-02T09:00:53.354Z,97726.00
2023-12-02T09:01:03.033Z,97728.00
2023-12-02T09:01:14.566Z,97726.00
2023-12-02T09:01:25.854Z,97732.00
2023-12-02T09:01:37.428Z,97726.00
2023-12-02T09:01:48.828Z,97726.00
2023-12-02T09:02:00.461Z,97736.00
2023-12-02T09:02:11.951Z,97736.00
2023-12-02T09:02:23.646Z,97736.00
2023-12-02T09:02:35.120Z,97734.00
2023-12-02T09:02:46.667Z,97738.00
2023-12-02T09:02:57.997Z,97732.00
2023-12-02T09:03:09.499Z,97738.00
2023-12-02T09:03:20.835Z,97740.00
2023-12-02T09:03:32.398Z,97740.00
2023-12-02T09:03:43.685Z,97742.00
2023-12-02T09:03:55.270Z,97742.00
2023-12-02T09:04:06.546Z,97742.00
2023-12-02T09:04:18.089Z,97742.00
2023-12-02T09:04:29.378Z,97744.00
2023-12-02T09:04:41.500Z,97744.00
2023-12-02T09:04:52.771Z,97742.00
2023-12-02T09:05:04.366Z,97744.00
2023-12-02T09:05:15.661Z,97742.00
2023-12-02T09:05:27.237Z,97742.00
2023-12-02T09:05:38.512Z,97746.00
2023-12-02T09:05:50.141Z,97744.00
2023-12-02T09:06:01.457Z,97742.00
2023-12-02T09:06:13.018Z,97744.00
2023-12-02T09:06:24.271Z,97746.00
2023-12-02T09:06:39.088Z,97746.00
2023-12-02T09:06:47.694Z,97738.00
2023-12-02T09:06:59.834Z,97740.00
2023-12-02T09:07:08.965Z,97742.00
2023-12-02T09:07:20.498Z,97740.00
2023-12-02T09:07:31.807Z,97740.00
2023-12-02T09:07:43.461Z,97738.00
2023-12-02T09:07:54.882Z,97738.00
2023-12-02T09:08:06.509Z,97738.00
2023-12-02T09:08:17.898Z,97740.00
2023-12-02T09:08:29.548Z,97738.00
2023-12-02T09:08:40.988Z,97734.00
2023-12-02T09:08:52.590Z,97736.00
2023-12-02T09:09:03.873Z,97734.00
2023-12-02T09:09:15.408Z,97734.00
2023-12-02T09:09:26.665Z,97734.00
2023-12-02T09:09:38.185Z,97732.00
2023-12-02T09:09:49.448Z,97732.00
2023-12-02T09:10:00.973Z,97728.00
2023-12-02T09:10:12.239Z,97728.00
2023-12-02T09:10:23.774Z,97728.00
2023-12-02T09:10:35.047Z,97730.00
2023-12-02T09:10:46.625Z,97722.00
2023-12-02T09:10:57.959Z,97728.00
2023-12-02T09:11:09.563Z,97724.00
2023-12-02T09:11:20.869Z,97722.00
2023-12-02T09:11:32.478Z,97720.00
2023-12-02T09:11:43.765Z,97722.00
2023-12-02T09:11:56.051Z,97720.00
2023-12-02T09:12:05.366Z,97722.00
2023-12-02T09:12:16.906Z,97722.00
2023-12-02T09:12:28.163Z,97722.00
2023-12-02T09:12:39.717Z,97724.00
2023-12-02T09:12:51.005Z,97728.00
2023-12-02T09:13:02.529Z,97726.00
2023-12-02T09:13:13.791Z,97728.00
2023-12-02T09:13:25.338Z,97724.00
2023-12-02T09:13:36.764Z,97710.00
2023-12-02T09:13:48.369Z,97712.00
2023-12-02T09:13:59.672Z,97720.00
2023-12-02T09:14:11.249Z,97712.00
2023-12-02T09:14:22.545Z,97710.00
2023-12-02T09:14:34.035Z,97706.00
2023-12-02T09:14:45.311Z,97706.00
2023-12-02T09:14:56.865Z,97706.00
2023-12-02T09:15:08.148Z,97704.00
2023-12-02T09:15:19.706Z,97702.00
2023-12-02T09:15:30.978Z,97702.00
2023-12-02T09:15:42.499Z,97702.00
2023-12-02T09:15:53.750Z,97702.00
2023-12-02T09:16:05.286Z,97704.00
2023-12-02T09:16:16.625Z,97700.00
2023-12-02T09:16:28.199Z,97702.00
2023-12-02T09:16:39.496Z,97700.00
2023-12-02T09:16:51.073Z,97700.00
2023-12-02T09:17:02.332Z,97698.00
2023-12-02T09:17:14.042Z,97698.00
2023-12-02T09:17:25.286Z,97700.00
2023-12-02T09:17:36.831Z,97702.00
2023-12-02T09:17:48.135Z,97700.00
2023-12-02T09:17:59.696Z,97702.00
2023-12-02T09:18:11.111Z,97704.00
2023-12-02T09:18:23.397Z,97704.00
2023-12-02T09:18:34.920Z,97706.00
2023-12-02T09:18:46.227Z,97710.00
2023-12-02T09:18:58.452Z,97720.00
2023-12-02T09:19:10.099Z,97720.00
2023-12-02T09:19:21.396Z,97726.00
2023-12-02T09:19:33.026Z,97728.00
2023-12-02T09:19:45.284Z,97732.00
2023-12-02T09:19:56.875Z,97736.00
2023-12-02T09:20:08.179Z,97740.00
2023-12-02T09:20:19.733Z,97744.00
2023-12-02T09:20:31.004Z,97748.00
2023-12-02T09:20:42.567Z,97752.00
2023-12-02T09:20:53.817Z,97752.00
2023-12-02T09:21:05.352Z,97752.00
2023-12-02T09:21:16.616Z,97754.00
2023-12-02T09:21:28.193Z,97754.00
2023-12-02T09:21:39.463Z,97754.00
2023-12-02T09:21:50.990Z,97754.00
2023-12-02T09:22:02.253Z,97756.00
2023-12-02T09:22:13.825Z,97756.00
2023-12-02T09:22:25.093Z,97756.00
2023-12-02T09:22:36.706Z,97756.00
2023-12-02T09:22:48.196Z,97756.00
2023-12-02T09:22:59.947Z,97756.00
2023-12-02T09:23:11.302Z,97756.00
2023-12-02T09:23:22.844Z,97754.00
2023-12-02T09:23:34.121Z,97754.00
2023-12-02T09:23:45.615Z,97754.00
2023-12-02T09:23:56.873Z,97752.00
2023-12-02T09:24:08.401Z,97752.00
2023-12-02T09:24:19.667Z,97752.00
2023-12-02T09:24:31.190Z,97750.00
2023-12-02T09:24:42.496Z,97748.00
2023-12-02T09:24:53.985Z,97748.00
2023-12-02T09:25:05.249Z,97748.00
2023-12-02T09:25:16.750Z,97744.00
2023-12-02T09:25:28.424Z,97746.00
2023-12-02T09:25:40.108Z,97744.00
2023-12-02T09:25:51.418Z,97746.00
2023-12-02T09:26:03.121Z,97746.00
2023-12-02T09:26:14.523Z,97744.00
2023-12-02T09:26:26.054Z,97746.00
2023-12-02T09:26:37.302Z,97742.00
2023-12-02T09:26:48.811Z,97744.00
2023-12-02T09:27:00.076Z,97744.00
2023-12-02T09:27:11.610Z,97746.00
2023-12-02T09:27:23.870Z,97746.00
2023-12-02T09:27:32.989Z,97748.00
2023-12-02T09:27:44.493Z,97746.00
2023-12-02T09:27:55.750Z,97748.00
2023-12-02T09:28:07.531Z,97746.00
2023-12-02T09:28:19.023Z,97748.00
2023-12-02T09:28:30.654Z,97750.00
2023-12-02T09:28:42.002Z,97750.00
2023-12-02T09:28:53.574Z,97752.00
2023-12-02T09:29:04.866Z,97752.00
2023-12-02T09:29:16.371Z,97754.00
2023-12-02T09:29:27.668Z,97754.00
2023-12-02T09:29:39.203Z,97756.00
2023-12-02T09:29:50.432Z,97756.00
2023-12-02T09:30:02.907Z,97756.00
2023-12-02T09:30:12.040Z,97756.00
2023-12-02T09:30:23.595Z,97758.00
2023-12-02T09:30:34.856Z,97756.00
2023-12-02T09:30:46.356Z,97758.00
2023-12-02T09:31:06.939Z,97758.00
2023-12-02T09:31:10.894Z,97760.00
2023-12-02T09:31:20.481Z,97762.00
2023-12-02T09:31:32.156Z,97762.00
2023-12-02T09:31:43.522Z,97765.00
2023-12-02T09:31:55.042Z,97763.00
2023-12-02T09:32:06.318Z,97765.00
2023-12-02T09:32:17.909Z,97767.00
2023-12-02T09:32:29.187Z,97765.00
2023-12-02T09:32:40.775Z,97769.00
2023-12-02T09:32:52.152Z,97769.00
2023-12-02T09:33:03.687Z,97769.00
2023-12-02T09:33:15.209Z,97769.00
2023-12-02T09:33:26.814Z,97769.00
2023-12-02T09:33:38.410Z,97767.00
2023-12-02T09:33:50.309Z,97767.00
2023-12-02T09:34:01.654Z,97769.00
2023-12-02T09:34:13.260Z,97769.00
2023-12-02T09:34:24.538Z,97769.00
2023-12-02T09:34:36.214Z,97767.00
2023-12-02T09:34:47.504Z,97769.00
2023-12-02T09:34:59.227Z,97771.00
2023-12-02T09:35:10.602Z,97767.00
2023-12-02T09:35:22.286Z,97765.00
2023-12-02T09:35:33.538Z,97767.00
2023-12-02T09:35:45.535Z,97763.00
2023-12-02T09:35:56.808Z,97765.00
2023-12-02T09:36:08.352Z,97762.00
2023-12-02T09:36:19.656Z,97760.00
2023-12-02T09:36:31.176Z,97763.00
2023-12-02T09:36:42.429Z,97762.00
2023-12-02T09:36:53.959Z,97762.00
2023-12-02T09:37:05.238Z,97760.00
2023-12-02T09:37:16.778Z,97758.00
2023-12-02T09:37:28.081Z,97758.00
2023-12-02T09:37:39.620Z,97756.00
2023-12-02T09:37:50.920Z,97758.00
2023-12-02T09:38:02.536Z,97758.00
2023-12-02T09:38:13.923Z,97758.00
2023-12-02T09:38:25.458Z,97756.00
2023-12-02T09:38:36.736Z,97758.00
2023-12-02T09:38:48.318Z,97754.00
2023-12-02T09:38:59.585Z,97758.00
2023-12-02T09:39:11.808Z,97758.00
2023-12-02T09:39:23.372Z,97754.00
2023-12-02T09:39:34.639Z,97754.00
2023-12-02T09:39:46.182Z,97754.00
2023-12-02T09:39:57.529Z,97752.00
2023-12-02T09:40:09.023Z,97752.00
2023-12-02T09:40:20.299Z,97752.00
2023-12-02T09:40:31.855Z,97750.00
2023-12-02T09:40:43.156Z,97750.00
2023-12-02T09:40:54.713Z,97750.00
2023-12-02T09:41:06.073Z,97748.00
2023-12-02T09:41:18.377Z,97748.00
2023-12-02T09:41:29.941Z,97748.00
2023-12-02T09:41:41.208Z,97750.00
2023-12-02T09:41:52.837Z,97748.00
2023-12-02T09:42:04.156Z,97746.00
2023-12-02T09:42:15.723Z,97746.00
2023-12-02T09:42:26.992Z,97744.00
2023-12-02T09:42:38.539Z,97746.00
2023-12-02T09:42:49.794Z,97744.00
2023-12-02T09:43:01.334Z,97746.00
2023-12-02T09:43:13.339Z,97746.00
2023-12-02T09:43:24.915Z,97742.00
2023-12-02T09:43:36.219Z,97744.00
2023-12-02T09:43:47.819Z,97742.00
2023-12-02T09:43:59.155Z,97744.00
2023-12-02T09:44:10.763Z,97746.00
2023-12-02T09:44:22.054Z,97746.00
2023-12-02T09:44:33.576Z,97742.00
2023-12-02T09:44:44.905Z,97742.00
2023-12-02T09:44:56.401Z,97746.00
2023-12-02T09:45:07.758Z,97746.00
2023-12-02T09:45:19.392Z,97742.00
2023-12-02T09:45:30.661Z,97740.00
2023-12-02T09:45:42.191Z,97744.00
2023-12-02T09:45:53.453Z,97742.00
2023-12-02T09:46:05.027Z,97742.00
2023-12-02T09:46:16.305Z,97740.00
2023-12-02T09:46:27.889Z,97738.00
2023-12-02T09:46:39.230Z,97738.00
2023-12-02T09:46:50.742Z,97736.00
2023-12-02T09:47:02.031Z,97736.00
2023-12-02T09:47:13.579Z,97734.00
2023-12-02T09:47:24.957Z,97736.00
2023-12-02T09:47:37.328Z,97734.00
2023-12-02T09:47:48.932Z,97732.00
2023-12-02T09:48:00.281Z,97732.00
2023-12-02T09:48:11.910Z,97734.00
2023-12-02T09:48:23.253Z,97730.00
2023-12-02T09:48:34.809Z,97732.00
2023-12-02T09:48:46.043Z,97732.00
2023-12-02T09:48:57.610Z,97734.00
2023-12-02T09:49:08.917Z,97730.00
2023-12-02T09:49:20.490Z,97732.00
2023-12-02T09:49:31.824Z,97732.00
2023-12-02T09:49:43.414Z,97734.00
2023-12-02T09:49:54.706Z,97734.00
2023-12-02T09:50:06.317Z,97736.00
2023-12-02T09:50:21.581Z,97734.00
2023-12-02T09:50:28.874Z,97734.00
2023-12-02T09:50:40.145Z,97738.00
2023-12-02T09:50:51.689Z,97734.00
2023-12-02T09:51:02.987Z,97736.00
2023-12-02T09:51:14.529Z,97740.00
2023-12-02T09:51:25.786Z,97736.00
2023-12-02T09:51:37.361Z,97740.00
2023-12-02T09:51:48.648Z,97742.00
2023-12-02T09:52:00.193Z,97740.00
2023-12-02T09:52:11.500Z,97744.00
2023-12-02T09:52:23.047Z,97742.00
2023-12-02T09:52:34.421Z,97740.00
2023-12-02T09:52:45.967Z,97744.00
2023-12-02T09:52:57.250Z,97744.00
2023-12-02T09:53:08.815Z,97742.00
2023-12-02T09:53:20.855Z,97744.00
2023-12-02T09:53:32.391Z,97746.00
2023-12-02T09:53:43.648Z,97746.00
2023-12-02T09:53:55.202Z,97746.00
2023-12-02T09:54:06.461Z,97748.00
2023-12-02T09:54:18.145Z,97746.00
2023-12-02T09:54:29.383Z,97748.00
2023-12-02T09:54:40.900Z,97746.00
2023-12-02T09:54:52.157Z,97748.00
2023-12-02T09:55:03.705Z,97750.00
2023-12-02T09:55:15.118Z,97748.00
2023-12-02T09:55:26.638Z,97750.00
2023-12-02T09:55:37.950Z,97750.00
2023-12-02T09:55:50.492Z,97748.00
2023-12-02T09:55:59.661Z,97754.00
2023-12-02T09:56:11.226Z,97750.00
2023-12-02T09:56:22.820Z,97752.00
2023-12-02T09:56:34.357Z,97752.00
2023-12-02T09:56:45.621Z,97750.00
2023-12-02T09:56:57.834Z,97752.00
2023-12-02T09:57:09.345Z,97756.00
2023-12-02T09:57:20.598Z,97758.00
2023-12-02T09:57:32.188Z,97756.00
2023-12-02T09:57:43.449Z,97758.00
2023-12-02T09:57:54.988Z,97752.00
2023-12-02T09:58:06.238Z,97760.00
2023-12-02T09:58:17.803Z,97762.00
2023-12-02T09:58:29.083Z,97760.00
2023-12-02T09:58:40.604Z,97756.00
2023-12-02T09:58:51.913Z,97762.00
2023-12-02T09:59:03.473Z,97763.00
2023-12-02T09:59:14.801Z,97762.00
2023-12-02T09:59:26.285Z,97762.00
2023-12-02T09:59:37.580Z,97763.00
2023-12-02T09:59:49.129Z,97763.00
2023-12-02T10:00:00.376Z,97762.00
2023-12-02T10:00:11.926Z,97763.00
2023-12-02T10:00:23.837Z,97763.00
2023-12-02T10:00:35.383Z,97763.00
2023-12-02T10:00:46.641Z,97763.00
2023-12-02T10:00:58.175Z,97763.00
2023-12-02T10:01:09.464Z,97763.00
2023-12-02T10:01:21.042Z,97760.00
2023-12-02T10:01:32.405Z,97762.00
2023-12-02T10:01:44.120Z,97760.00
2023-12-02T10:01:55.573Z,97762.00
2023-12-02T10:02:07.265Z,97758.00
2023-12-02T10:02:20.931Z,97758.00
2023-12-02T10:02:29.576Z,97754.00
2023-12-02T10:02:40.980Z,97756.00
2023-12-02T10:02:52.563Z,97758.00
2023-12-02T10:03:03.819Z,97754.00
2023-12-02T10:03:15.368Z,97754.00
2023-12-02T10:03:26.655Z,97750.00
2023-12-02T10:03:38.161Z,97748.00
2023-12-02T10:03:49.431Z,97746.00
2023-12-02T10:04:00.955Z,97742.00
2023-12-02T10:04:12.259Z,97740.00
2023-12-02T10:04:23.848Z,97738.00
2023-12-02T10:04:35.160Z,97734.00
2023-12-02T10:04:46.776Z,97730.00
2023-12-02T10:04:58.095Z,97726.00
2023-12-02T10:05:09.826Z,97720.00
2023-12-02T10:05:21.247Z,97712.00
2023-12-02T10:05:32.823Z,97700.00
2023-12-02T10:05:44.149Z,97700.00
2023-12-02T10:05:55.689Z,97698.00
2023-12-02T10:06:07.857Z,97695.00
2023-12-02T10:06:17.055Z,97691.00
2023-12-02T10:06:28.707Z,97685.00
2023-12-02T10:06:40.083Z,97683.00
2023-12-02T10:06:51.682Z,97679.00
2023-12-02T10:07:02.991Z,97681.00
2023-12-02T10:07:14.540Z,97681.00
2023-12-02T10:07:25.921Z,97681.00
2023-12-02T10:07:37.566Z,97683.00
2023-12-02T10:07:48.954Z,97683.00
2023-12-02T10:08:00.531Z,97687.00
2023-12-02T10:08:11.797Z,97689.00
2023-12-02T10:08:23.581Z,97693.00
2023-12-02T10:08:34.876Z,97695.00
2023-12-02T10:08:46.417Z,97700.00
2023-12-02T10:08:57.798Z,97702.00
2023-12-02T10:09:09.349Z,97704.00
2023-12-02T10:09:20.595Z,97706.00
2023-12-02T10:09:32.112Z,97708.00
2023-12-02T10:09:44.306Z,97712.00
2023-12-02T10:09:53.478Z,97720.00
2023-12-02T10:10:04.994Z,97722.00
2023-12-02T10:10:16.269Z,97720.00
2023-12-02T10:10:27.878Z,97720.00
2023-12-02T10:10:39.205Z,97724.00
2023-12-02T10:10:50.794Z,97724.00
2023-12-02T10:11:02.126Z,97728.00
2023-12-02T10:11:13.711Z,97728.00
2023-12-02T10:11:25.008Z,97726.00
2023-12-02T10:11:36.526Z,97730.00
2023-12-02T10:11:47.769Z,97732.00
2023-12-02T10:11:59.503Z,97732.00
2023-12-02T10:12:10.742Z,97732.00
2023-12-02T10:12:22.314Z,97734.00
2023-12-02T10:12:33.574Z,97736.00
2023-12-02T10:12:45.108Z,97736.00
2023-12-02T10:12:56.409Z,97736.00
2023-12-02T10:13:07.923Z,97738.00
2023-12-02T10:13:19.213Z,97738.00